Time;durP1;ratioP1;P1;durP2;ratioP2;P2;SDS_P1;SDS_P2;PMS_P1;PMS_P2;Temp;Humidity;BMP_temperature;BMP_pressure;BME280_temperature;BME280_humidity;BME280_pressure;Samples;Min_cycle;Max_cycle;Signal;HPM_P1;HPM_P2
2021/09/06 00:02:20;;;;;;;4.62;3.22;;;;;;;;;;1890151;76;21019;-51
2021/09/06 00:04:49;;;;;;;5.22;3.00;;;;;;;;;;1890027;76;21100;-48
2021/09/06 00:07:18;;;;;;;3.58;2.70;;;;;;;;;;1889985;76;21046;-49
2021/09/06 00:09:49;;;;;;;5.92;3.15;;;;;;;;;;1890152;76;21097;-48
2021/09/06 00:12:17;;;;;;;5.25;3.02;;;;;;;;;;1890125;76;21022;-51
2021/09/06 00:14:46;;;;;;;4.33;2.75;;;;;;;;;;1890006;76;21160;-47
2021/09/06 00:17:15;;;;;;;3.10;2.58;;;;;;;;;;1890105;76;21019;-50
2021/09/06 00:19:44;;;;;;;5.20;3.08;;;;;;;;;;1890108;76;21015;-49
2021/09/06 00:22:13;;;;;;;3.80;2.92;;;;;;;;;;1890050;76;21152;-47
2021/09/06 00:24:42;;;;;;;5.15;2.87;;;;;;;;;;1890008;76;21038;-49
2021/09/06 00:27:11;;;;;;;3.65;2.90;;;;;;;;;;1890031;76;21096;-46
2021/09/06 00:29:41;;;;;;;3.40;2.75;;;;;;;;;;1889980;75;21068;-49
2021/09/06 00:32:10;;;;;;;6.00;2.95;;;;;;;;;;1890290;76;21030;-49
2021/09/06 00:34:38;;;;;;;6.33;3.65;;;;;;;;;;1890092;76;20999;-51
2021/09/06 00:37:07;;;;;;;6.40;3.15;;;;;;;;;;1890129;76;21093;-47
2021/09/06 00:39:36;;;;;;;4.03;2.98;;;;;;;;;;1890008;76;21105;-49
2021/09/06 00:42:05;;;;;;;3.55;3.08;;;;;;;;;;1890126;76;21199;-50
2021/09/06 00:44:34;;;;;;;6.70;2.60;;;;;;;;;;1889995;76;21077;-47
2021/09/06 00:47:03;;;;;;;3.42;2.90;;;;;;;;;;1890080;76;21038;-50
2021/09/06 00:49:32;;;;;;;6.83;3.98;;;;;;;;;;1890133;76;21058;-49
2021/09/06 00:52:01;;;;;;;3.02;2.70;;;;;;;;;;1890041;76;21104;-50
2021/09/06 00:54:30;;;;;;;4.28;2.72;;;;;;;;;;1890152;76;21039;-48
2021/09/06 00:56:59;;;;;;;3.85;2.45;;;;;;;;;;1889977;76;21101;-50
2021/09/06 00:59:29;;;;;;;3.77;2.60;;;;;;;;;;1890093;75;21086;-48
2021/09/06 01:02:00;;;;;;;10.32;3.35;;;;;;;;;;1890110;76;21014;-47
2021/09/06 01:04:30;;;;;;;3.37;2.70;;;;;;;;;;1889968;75;21137;-49
2021/09/06 01:07:03;;;;;;;5.40;2.90;;;;;;;;;;1875350;75;21147;-50
2021/09/06 01:09:50;;;;;;;3.20;2.80;;;;;;;;;;1890105;76;21030;-49
2021/09/06 01:12:33;;;;;;;4.33;3.27;;;;;;;;;;1889894;75;21074;-47
2021/09/06 01:15:02;;;;;;;6.25;3.75;;;;;;;;;;1890040;76;21039;-49
2021/09/06 01:17:33;;;;;;;6.78;2.90;;;;;;;;;;1890069;75;21192;-49
2021/09/06 01:20:02;;;;;;;4.60;3.25;;;;;;;;;;1890136;75;21198;-48
2021/09/06 01:22:32;;;;;;;4.78;2.83;;;;;;;;;;1890086;75;21133;-49
2021/09/06 01:25:06;;;;;;;4.95;3.02;;;;;;;;;;1890210;75;21059;-50
2021/09/06 01:27:35;;;;;;;4.05;2.77;;;;;;;;;;1890014;76;21007;-47
2021/09/06 01:30:04;;;;;;;5.35;3.00;;;;;;;;;;1890107;76;21183;-50
2021/09/06 01:32:34;;;;;;;4.70;2.80;;;;;;;;;;1890083;76;21104;-47
2021/09/06 01:35:03;;;;;;;4.37;3.17;;;;;;;;;;1890203;76;21100;-48
2021/09/06 01:37:32;;;;;;;7.25;3.05;;;;;;;;;;1890052;76;21042;-46
2021/09/06 01:40:01;;;;;;;6.80;2.98;;;;;;;;;;1889982;76;21097;-49
2021/09/06 01:42:30;;;;;;;5.42;2.83;;;;;;;;;;1890090;75;21121;-49
2021/09/06 01:45:04;;;;;;;3.30;2.60;;;;;;;;;;1890033;76;21122;-46
2021/09/06 01:47:34;;;;;;;4.28;2.98;;;;;;;;;;1890149;76;21054;-49
2021/09/06 01:50:04;;;;;;;3.50;2.62;;;;;;;;;;1890087;76;21251;-49
2021/09/06 01:52:34;;;;;;;4.50;2.80;;;;;;;;;;1890391;75;21105;-49
2021/09/06 01:55:05;;;;;;;7.00;2.80;;;;;;;;;;1890102;76;21065;-50
2021/09/06 01:57:35;;;;;;;6.78;3.20;;;;;;;;;;1889941;76;21215;-49
2021/09/06 02:00:07;;;;;;;6.08;2.60;;;;;;;;;;1890113;76;21096;-49
2021/09/06 02:02:37;;;;;;;3.80;2.85;;;;;;;;;;1890339;75;21108;-48
2021/09/06 02:05:07;;;;;;;5.08;2.98;;;;;;;;;;1890201;76;21038;-49
2021/09/06 02:07:36;;;;;;;5.75;3.17;;;;;;;;;;1889879;76;21026;-49
2021/09/06 02:10:06;;;;;;;5.78;3.05;;;;;;;;;;1889973;76;21038;-49
2021/09/06 02:12:35;;;;;;;3.95;3.10;;;;;;;;;;1890041;76;21027;-50
2021/09/06 02:15:06;;;;;;;8.15;3.95;;;;;;;;;;1890054;75;21049;-49
2021/09/06 02:17:35;;;;;;;5.65;3.67;;;;;;;;;;1889978;76;21188;-50
2021/09/06 02:20:04;;;;;;;13.62;5.70;;;;;;;;;;1889972;76;21082;-50
2021/09/06 02:22:33;;;;;;;17.98;7.12;;;;;;;;;;1890094;76;21023;-50
2021/09/06 02:25:04;;;;;;;18.75;7.30;;;;;;;;;;1890005;75;21161;-46
2021/09/06 02:27:35;;;;;;;16.65;5.53;;;;;;;;;;1889908;75;21141;-48
2021/09/06 02:30:06;;;;;;;9.93;4.58;;;;;;;;;;1886643;75;21019;-49
2021/09/06 02:32:34;;;;;;;6.90;3.85;;;;;;;;;;1889976;76;21043;-49
2021/09/06 02:35:21;;;;;;;8.58;4.53;;;;;;;;;;1889971;76;21108;-46
2021/09/06 02:37:50;;;;;;;9.75;3.80;;;;;;;;;;1890221;76;21038;-51
2021/09/06 02:40:19;;;;;;;10.32;4.72;;;;;;;;;;1889923;76;21030;-47
2021/09/06 02:42:50;;;;;;;9.30;5.33;;;;;;;;;;1889739;75;21023;-46
2021/09/06 02:45:19;;;;;;;12.45;7.42;;;;;;;;;;1889886;76;20999;-48
2021/09/06 02:47:49;;;;;;;9.70;4.97;;;;;;;;;;1890017;75;21079;-47
2021/09/06 02:50:18;;;;;;;8.75;5.15;;;;;;;;;;1889894;76;21035;-48
2021/09/06 02:52:48;;;;;;;11.18;4.92;;;;;;;;;;1890029;76;21042;-47
2021/09/06 02:55:18;;;;;;;13.75;6.53;;;;;;;;;;1889998;76;21042;-48
2021/09/06 02:57:48;;;;;;;8.80;4.80;;;;;;;;;;1889921;76;21050;-45
2021/09/06 03:00:18;;;;;;;11.28;4.50;;;;;;;;;;1889820;76;21100;-48
2021/09/06 03:02:47;;;;;;;13.50;5.10;;;;;;;;;;1890081;76;21081;-48
2021/09/06 03:05:15;;;;;;;7.12;4.37;;;;;;;;;;1889953;76;21031;-49
2021/09/06 03:07:46;;;;;;;13.38;4.17;;;;;;;;;;1889746;75;21115;-49
2021/09/06 03:10:15;;;;;;;12.40;4.58;;;;;;;;;;1889822;76;21030;-48
2021/09/06 03:12:45;;;;;;;8.20;4.87;;;;;;;;;;1889985;76;21077;-47
2021/09/06 03:15:13;;;;;;;9.23;4.80;;;;;;;;;;1889869;76;21404;-47
2021/09/06 03:17:42;;;;;;;11.68;5.05;;;;;;;;;;1890003;76;21108;-47
2021/09/06 03:20:12;;;;;;;11.03;5.42;;;;;;;;;;1889969;75;21015;-45
2021/09/06 03:22:41;;;;;;;13.50;5.45;;;;;;;;;;1890006;76;21035;-47
2021/09/06 03:25:11;;;;;;;15.40;6.87;;;;;;;;;;1890190;76;21015;-49
2021/09/06 03:27:40;;;;;;;14.38;7.12;;;;;;;;;;1890001;76;21027;-47
2021/09/06 03:30:09;;;;;;;21.68;7.95;;;;;;;;;;1890021;76;21112;-46
2021/09/06 03:32:39;;;;;;;13.25;6.15;;;;;;;;;;1890096;76;21002;-46
2021/09/06 03:35:08;;;;;;;18.02;7.42;;;;;;;;;;1890028;76;21034;-47
2021/09/06 03:37:36;;;;;;;11.45;5.15;;;;;;;;;;1890025;76;21050;-48
2021/09/06 03:40:07;;;;;;;13.85;6.22;;;;;;;;;;1890166;76;21038;-48
2021/09/06 03:42:36;;;;;;;8.83;4.50;;;;;;;;;;1890059;76;21104;-48
2021/09/06 03:45:05;;;;;;;9.33;4.72;;;;;;;;;;1876474;76;21121;-49
2021/09/06 03:47:36;;;;;;;8.08;4.85;;;;;;;;;;1871296;77;21083;-48
2021/09/06 03:50:05;;;;;;;11.22;4.95;;;;;;;;;;1871398;77;20999;-49
2021/09/06 03:52:35;;;;;;;15.03;5.53;;;;;;;;;;1871479;76;21110;-48
2021/09/06 03:55:05;;;;;;;10.78;4.97;;;;;;;;;;1871429;76;21101;-48
2021/09/06 03:57:34;;;;;;;13.20;5.60;;;;;;;;;;1871460;75;21059;-49
2021/09/06 04:00:03;;;;;;;14.58;5.83;;;;;;;;;;1871240;77;21024;-49
2021/09/06 04:02:34;;;;;;;17.67;6.62;;;;;;;;;;1871104;76;21063;-48
2021/09/06 04:05:02;;;;;;;17.42;7.37;;;;;;;;;;1871189;77;21093;-47
2021/09/06 04:07:31;;;;;;;14.47;6.22;;;;;;;;;;1871136;77;21007;-47
2021/09/06 04:10:00;;;;;;;8.85;5.95;;;;;;;;;;1871334;77;21031;-47
2021/09/06 04:12:31;;;;;;;11.97;5.85;;;;;;;;;;1871548;76;21028;-49
2021/09/06 04:15:04;;;;;;;12.40;6.72;;;;;;;;;;1871272;75;21109;-49
2021/09/06 04:17:34;;;;;;;9.28;5.67;;;;;;;;;;1871445;75;21067;-48
2021/09/06 04:20:05;;;;;;;10.80;5.55;;;;;;;;;;1871441;76;21070;-45
2021/09/06 04:22:35;;;;;;;10.30;5.15;;;;;;;;;;1871262;76;21094;-49
2021/09/06 04:25:04;;;;;;;8.90;4.35;;;;;;;;;;1871340;77;21148;-47
2021/09/06 04:27:33;;;;;;;8.03;4.37;;;;;;;;;;1871329;77;21130;-46
2021/09/06 04:30:02;;;;;;;6.62;3.50;;;;;;;;;;1871228;77;21032;-48
2021/09/06 04:32:31;;;;;;;3.92;3.25;;;;;;;;;;1871454;77;21016;-49
2021/09/06 04:35:01;;;;;;;9.43;5.22;;;;;;;;;;1871431;75;21028;-48
2021/09/06 04:37:31;;;;;;;10.68;4.30;;;;;;;;;;1871386;77;21047;-49
2021/09/06 04:40:01;;;;;;;5.08;3.55;;;;;;;;;;1885525;75;21020;-46
2021/09/06 04:42:31;;;;;;;6.17;3.60;;;;;;;;;;1871362;76;21067;-49
2021/09/06 04:45:01;;;;;;;10.38;3.83;;;;;;;;;;1871320;76;21129;-48
2021/09/06 04:47:30;;;;;;;8.20;3.55;;;;;;;;;;1871370;77;21172;-47
2021/09/06 04:50:00;;;;;;;7.47;3.80;;;;;;;;;;1871330;77;21032;-47
2021/09/06 04:52:29;;;;;;;6.20;3.33;;;;;;;;;;1871288;77;21036;-49
2021/09/06 04:54:59;;;;;;;12.00;4.70;;;;;;;;;;1871265;77;21066;-50
2021/09/06 04:57:28;;;;;;;10.63;4.12;;;;;;;;;;1871360;77;21024;-48
2021/09/06 04:59:57;;;;;;;7.33;3.52;;;;;;;;;;1871259;77;21032;-47
2021/09/06 05:02:26;;;;;;;9.30;4.12;;;;;;;;;;1871343;77;21075;-47
2021/09/06 05:04:55;;;;;;;4.45;3.17;;;;;;;;;;1871249;77;21011;-49
2021/09/06 05:07:25;;;;;;;6.22;3.65;;;;;;;;;;1871341;75;21125;-49
2021/09/06 05:09:54;;;;;;;5.80;3.77;;;;;;;;;;1871399;77;21091;-46
2021/09/06 05:12:23;;;;;;;5.72;3.58;;;;;;;;;;1871328;77;21047;-47
2021/09/06 05:14:52;;;;;;;5.90;3.65;;;;;;;;;;1871292;77;21047;-48
2021/09/06 05:17:21;;;;;;;6.20;4.12;;;;;;;;;;1871298;77;21093;-46
2021/09/06 05:19:50;;;;;;;6.70;3.87;;;;;;;;;;1871275;77;21082;-50
2021/09/06 05:22:18;;;;;;;5.53;3.25;;;;;;;;;;1871361;77;21043;-49
2021/09/06 05:24:47;;;;;;;7.72;4.70;;;;;;;;;;1871387;75;21102;-50
2021/09/06 05:27:17;;;;;;;10.32;3.87;;;;;;;;;;1871211;77;21031;-48
2021/09/06 05:29:46;;;;;;;7.28;3.60;;;;;;;;;;1871212;77;21043;-46
2021/09/06 05:32:16;;;;;;;7.90;4.15;;;;;;;;;;1871283;76;21114;-48
2021/09/06 05:34:45;;;;;;;5.37;4.05;;;;;;;;;;1871241;76;21105;-48
2021/09/06 05:37:14;;;;;;;9.28;4.72;;;;;;;;;;1871298;77;21074;-50
2021/09/06 05:39:43;;;;;;;6.50;4.12;;;;;;;;;;1871127;76;21114;-48
2021/09/06 05:42:12;;;;;;;6.60;3.47;;;;;;;;;;1871068;77;21109;-49
2021/09/06 05:44:41;;;;;;;5.12;3.98;;;;;;;;;;1873346;76;20987;-50
2021/09/06 05:47:10;;;;;;;10.85;3.98;;;;;;;;;;1889929;76;21035;-46
2021/09/06 05:49:40;;;;;;;14.23;5.25;;;;;;;;;;1890049;75;21059;-48
2021/09/06 05:52:10;;;;;;;7.65;4.45;;;;;;;;;;1890050;76;21085;-49
2021/09/06 05:54:40;;;;;;;5.40;3.90;;;;;;;;;;1889830;75;21117;-46
2021/09/06 05:57:11;;;;;;;7.75;3.50;;;;;;;;;;1890103;75;21059;-47
2021/09/06 05:59:40;;;;;;;4.15;2.98;;;;;;;;;;1889880;76;21132;-48
2021/09/06 06:02:08;;;;;;;7.20;3.87;;;;;;;;;;1889933;76;21039;-47
2021/09/06 06:04:38;;;;;;;4.95;3.50;;;;;;;;;;1889756;75;21075;-49
2021/09/06 06:07:08;;;;;;;4.83;3.30;;;;;;;;;;1890052;76;21143;-49
2021/09/06 06:09:37;;;;;;;6.30;3.05;;;;;;;;;;1889931;76;21102;-45
2021/09/06 06:12:08;;;;;;;3.83;2.55;;;;;;;;;;1889959;75;21558;-46
2021/09/06 06:14:37;;;;;;;3.70;2.50;;;;;;;;;;1889993;76;21105;-46
2021/09/06 06:17:07;;;;;;;2.85;2.45;;;;;;;;;;1890025;76;21022;-48
2021/09/06 06:19:38;;;;;;;3.55;2.50;;;;;;;;;;1889421;75;21079;-49
2021/09/06 06:22:25;;;;;;;4.28;2.40;;;;;;;;;;1889914;76;21097;-46
2021/09/06 06:24:55;;;;;;;3.98;2.10;;;;;;;;;;1889916;75;21123;-50
2021/09/06 06:27:28;;;;;;;3.60;2.00;;;;;;;;;;1887661;75;21042;-47
2021/09/06 06:29:57;;;;;;;4.62;2.40;;;;;;;;;;1889942;76;21069;-49
2021/09/06 06:32:26;;;;;;;3.10;1.77;;;;;;;;;;1889932;76;21034;-47
2021/09/06 06:34:56;;;;;;;3.05;1.85;;;;;;;;;;1890206;75;21071;-46
2021/09/06 06:37:25;;;;;;;4.70;2.12;;;;;;;;;;1889967;76;21070;-47
2021/09/06 06:39:54;;;;;;;4.62;2.12;;;;;;;;;;1889905;76;21140;-47
2021/09/06 06:42:23;;;;;;;3.02;1.98;;;;;;;;;;1890100;76;21055;-50
2021/09/06 06:44:54;;;;;;;4.75;2.30;;;;;;;;;;1889232;76;21112;-48
2021/09/06 06:47:22;;;;;;;2.95;2.02;;;;;;;;;;1871290;77;21047;-46
2021/09/06 06:49:52;;;;;;;4.78;2.40;;;;;;;;;;1871140;77;21039;-47
2021/09/06 06:52:20;;;;;;;3.37;2.40;;;;;;;;;;1871249;77;21043;-47
2021/09/06 06:54:49;;;;;;;2.98;2.33;;;;;;;;;;1871294;77;21089;-47
2021/09/06 06:57:18;;;;;;;3.15;2.10;;;;;;;;;;1871326;77;21134;-45
2021/09/06 06:59:48;;;;;;;4.50;2.02;;;;;;;;;;1871307;77;21109;-50
2021/09/06 07:02:17;;;;;;;7.47;2.60;;;;;;;;;;1871352;75;21020;-48
2021/09/06 07:04:46;;;;;;;3.40;1.92;;;;;;;;;;1871266;77;21122;-49
2021/09/06 07:07:15;;;;;;;4.37;1.92;;;;;;;;;;1869836;77;21091;-50
2021/09/06 07:09:44;;;;;;;4.58;1.75;;;;;;;;;;1870696;75;21043;-48
2021/09/06 07:12:13;;;;;;;4.83;2.12;;;;;;;;;;1870837;77;21113;-46
2021/09/06 07:14:42;;;;;;;5.58;1.90;;;;;;;;;;1870655;77;21123;-50
2021/09/06 07:17:11;;;;;;;2.77;2.08;;;;;;;;;;1870836;77;21028;-50
2021/09/06 07:19:41;;;;;;;1.62;1.50;;;;;;;;;;1870791;77;21082;-49
2021/09/06 07:22:10;;;;;;;5.83;2.42;;;;;;;;;;1870665;77;21103;-48
2021/09/06 07:24:39;;;;;;;2.92;1.52;;;;;;;;;;1870945;76;21177;-45
2021/09/06 07:27:08;;;;;;;3.05;1.80;;;;;;;;;;1870772;77;21044;-48
2021/09/06 07:29:36;;;;;;;1.75;1.60;;;;;;;;;;1870632;77;21087;-46
2021/09/06 07:32:06;;;;;;;2.45;1.80;;;;;;;;;;1870791;77;21105;-48
2021/09/06 07:34:38;;;;;;;5.72;2.67;;;;;;;;;;1870712;77;21153;-49
2021/09/06 07:37:07;;;;;;;4.40;2.05;;;;;;;;;;1870616;75;21093;-50
2021/09/06 07:39:36;;;;;;;2.75;1.62;;;;;;;;;;1870730;77;21051;-47
2021/09/06 07:42:05;;;;;;;3.10;1.87;;;;;;;;;;1870761;77;21128;-49
2021/09/06 07:44:34;;;;;;;4.97;2.25;;;;;;;;;;1870561;77;21172;-46
2021/09/06 07:47:03;;;;;;;4.30;2.25;;;;;;;;;;1870601;75;21126;-48
2021/09/06 07:49:32;;;;;;;5.28;2.30;;;;;;;;;;1870558;76;21102;-49
2021/09/06 07:52:02;;;;;;;9.35;2.12;;;;;;;;;;1870863;77;21095;-49
2021/09/06 07:54:32;;;;;;;6.05;2.17;;;;;;;;;;1870813;77;21094;-48
2021/09/06 07:57:02;;;;;;;1.95;1.47;;;;;;;;;;1900282;75;21324;-47
2021/09/06 07:59:32;;;;;;;3.33;1.80;;;;;;;;;;1904486;74;21122;-49
2021/09/06 08:02:01;;;;;;;3.87;1.72;;;;;;;;;;1904668;74;21023;-45
2021/09/06 08:04:29;;;;;;;3.22;1.95;;;;;;;;;;1892332;75;21061;-47
2021/09/06 08:07:00;;;;;;;2.50;1.52;;;;;;;;;;1872079;75;21130;-45
2021/09/06 08:09:29;;;;;;;3.20;1.30;;;;;;;;;;1872278;75;21057;-48
2021/09/06 08:11:58;;;;;;;1.00;0.90;;;;;;;;;;1872134;77;21029;-49
2021/09/06 08:14:27;;;;;;;2.25;1.52;;;;;;;;;;1872166;75;21038;-45
2021/09/06 08:16:56;;;;;;;4.08;1.72;;;;;;;;;;1872261;75;21143;-46
2021/09/06 08:19:27;;;;;;;3.25;2.05;;;;;;;;;;1872294;77;21069;-48
2021/09/06 08:21:59;;;;;;;2.85;1.60;;;;;;;;;;1872081;76;21135;-51
2021/09/06 08:24:28;;;;;;;2.60;1.60;;;;;;;;;;1872192;76;21091;-49
2021/09/06 08:26:56;;;;;;;2.87;1.40;;;;;;;;;;1872032;76;21146;-46
2021/09/06 08:29:25;;;;;;;3.85;2.12;;;;;;;;;;1872246;75;21092;-49
2021/09/06 08:31:54;;;;;;;2.42;1.32;;;;;;;;;;1872251;76;21057;-47
2021/09/06 08:34:24;;;;;;;6.05;2.00;;;;;;;;;;1872209;76;21116;-50
2021/09/06 08:36:53;;;;;;;2.75;1.57;;;;;;;;;;1872274;76;21174;-47
2021/09/06 08:39:22;;;;;;;2.52;1.42;;;;;;;;;;1872108;75;21030;-50
2021/09/06 08:41:52;;;;;;;2.58;1.67;;;;;;;;;;1872157;76;21026;-47
2021/09/06 08:44:22;;;;;;;5.20;3.17;;;;;;;;;;1872288;76;21053;-46
2021/09/06 08:46:52;;;;;;;2.95;1.90;;;;;;;;;;1880283;75;21126;-48
2021/09/06 08:49:21;;;;;;;4.10;1.52;;;;;;;;;;1891055;76;21161;-47
2021/09/06 08:51:50;;;;;;;4.45;2.35;;;;;;;;;;1890730;76;21083;-49
2021/09/06 08:54:18;;;;;;;5.62;2.40;;;;;;;;;;1890956;74;21080;-46
2021/09/06 08:56:48;;;;;;;3.25;1.92;;;;;;;;;;1890837;76;21008;-48
2021/09/06 08:59:20;;;;;;;9.80;2.08;;;;;;;;;;1890934;76;21094;-48
2021/09/06 09:01:51;;;;;;;4.28;1.80;;;;;;;;;;1890894;76;21149;-45
2021/09/06 09:04:30;;;;;;;2.17;1.70;;;;;;;;;;1888842;75;21069;-44
2021/09/06 09:07:04;;;;;;;3.75;1.98;;;;;;;;;;1846251;75;21484;-45
2021/09/06 09:09:38;;;;;;;2.10;1.65;;;;;;;;;;1888132;75;21101;-48
2021/09/06 09:12:21;;;;;;;3.45;1.80;;;;;;;;;;1859550;75;21048;-47
2021/09/06 09:14:52;;;;;;;3.70;1.87;;;;;;;;;;1888389;75;21109;-47
2021/09/06 09:17:23;;;;;;;2.08;1.25;;;;;;;;;;1888784;75;21125;-46
2021/09/06 09:20:00;;;;;;;2.47;1.50;;;;;;;;;;1860455;75;21056;-49
2021/09/06 09:22:47;;;;;;;4.30;1.87;;;;;;;;;;1890789;76;21103;-47
2021/09/06 09:25:33;;;;;;;2.72;1.75;;;;;;;;;;1888395;75;21121;-49
2021/09/06 09:28:09;;;;;;;4.50;3.05;;;;;;;;;;1887942;75;21102;-51
2021/09/06 09:30:41;;;;;;;3.22;1.82;;;;;;;;;;1889147;75;21473;-50
2021/09/06 09:33:11;;;;;;;6.83;3.58;;;;;;;;;;1889679;75;21484;-46
2021/09/06 09:35:58;;;;;;;2.58;1.67;;;;;;;;;;1890779;76;21529;-47
2021/09/06 09:38:29;;;;;;;2.10;1.72;;;;;;;;;;1890929;76;21075;-46
2021/09/06 09:40:59;;;;;;;3.22;1.30;;;;;;;;;;1890517;75;21102;-46
2021/09/06 09:43:31;;;;;;;3.25;1.47;;;;;;;;;;1890986;76;21048;-47
2021/09/06 09:46:02;;;;;;;3.08;1.80;;;;;;;;;;1890824;76;21040;-49
2021/09/06 09:48:33;;;;;;;2.58;1.50;;;;;;;;;;1883141;76;21072;-47
2021/09/06 09:51:03;;;;;;;2.62;1.70;;;;;;;;;;1884269;76;21053;-47
2021/09/06 09:53:32;;;;;;;2.87;1.47;;;;;;;;;;1883874;76;21009;-49
2021/09/06 09:56:01;;;;;;;1.80;1.37;;;;;;;;;;1884141;75;21033;-49
2021/09/06 09:58:31;;;;;;;2.83;1.57;;;;;;;;;;1884187;75;21049;-49
2021/09/06 10:01:01;;;;;;;3.40;1.80;;;;;;;;;;1884434;76;21037;-46
2021/09/06 10:03:33;;;;;;;1.95;1.27;;;;;;;;;;1884177;76;21028;-50
2021/09/06 10:06:01;;;;;;;2.62;1.75;;;;;;;;;;1884145;76;21119;-48
2021/09/06 10:08:30;;;;;;;2.17;1.40;;;;;;;;;;1884146;76;21033;-49
2021/09/06 10:10:59;;;;;;;2.65;1.67;;;;;;;;;;1883442;76;21041;-47
2021/09/06 10:13:29;;;;;;;2.80;1.35;;;;;;;;;;1884341;75;21092;-50
2021/09/06 10:16:00;;;;;;;2.00;1.20;;;;;;;;;;1882178;76;21053;-50
2021/09/06 10:18:31;;;;;;;4.08;1.57;;;;;;;;;;1883919;76;21001;-49
2021/09/06 10:21:02;;;;;;;2.35;1.32;;;;;;;;;;1883721;75;21170;-50
2021/09/06 10:23:32;;;;;;;6.92;5.28;;;;;;;;;;1882595;75;21622;-48
2021/09/06 10:26:03;;;;;;;4.45;3.75;;;;;;;;;;1882603;75;20993;-51
2021/09/06 10:28:32;;;;;;;4.92;2.80;;;;;;;;;;1883359;76;21045;-47
2021/09/06 10:31:02;;;;;;;2.55;2.15;;;;;;;;;;1884182;75;21033;-46
2021/09/06 10:33:33;;;;;;;3.17;2.47;;;;;;;;;;1883859;75;21021;-48
2021/09/06 10:36:03;;;;;;;5.53;3.80;;;;;;;;;;1883355;76;21097;-48
2021/09/06 10:38:43;;;;;;;8.15;3.45;;;;;;;;;;1884037;75;21150;-46
2021/09/06 10:41:18;;;;;;;8.95;3.60;;;;;;;;;;1884076;75;21095;-49
2021/09/06 10:43:48;;;;;;;4.03;2.45;;;;;;;;;;1883698;75;21072;-50
2021/09/06 10:46:17;;;;;;;2.02;1.50;;;;;;;;;;1884076;75;21068;-48
2021/09/06 10:48:47;;;;;;;2.65;1.80;;;;;;;;;;1873728;75;21170;-51
2021/09/06 10:51:17;;;;;;;2.65;1.82;;;;;;;;;;1872368;77;21178;-52
2021/09/06 10:53:46;;;;;;;2.80;1.60;;;;;;;;;;1871165;75;21045;-47
2021/09/06 10:56:16;;;;;;;2.62;1.67;;;;;;;;;;1872100;76;21121;-51
2021/09/06 10:58:46;;;;;;;2.98;1.67;;;;;;;;;;1872176;77;21045;-50
2021/09/06 11:01:15;;;;;;;4.58;2.08;;;;;;;;;;1872252;75;21022;-55
2021/09/06 11:03:46;;;;;;;3.15;1.70;;;;;;;;;;1873115;75;21037;-49
2021/09/06 11:06:15;;;;;;;3.37;2.22;;;;;;;;;;1872879;75;21033;-49
2021/09/06 11:08:45;;;;;;;3.35;2.30;;;;;;;;;;1872721;77;21029;-48
2021/09/06 11:11:14;;;;;;;1.90;1.50;;;;;;;;;;1872788;77;21112;-50
2021/09/06 11:13:46;;;;;;;2.42;1.95;;;;;;;;;;1872739;77;21087;-48
2021/09/06 11:16:16;;;;;;;2.75;2.10;;;;;;;;;;1872962;76;21061;-46
2021/09/06 11:18:48;;;;;;;2.12;1.50;;;;;;;;;;1872747;76;21134;-49
2021/09/06 11:21:19;;;;;;;3.47;1.60;;;;;;;;;;1872814;77;21020;-50
2021/09/06 11:23:50;;;;;;;2.30;1.70;;;;;;;;;;1872815;77;21022;-49
2021/09/06 11:26:26;;;;;;;3.50;1.98;;;;;;;;;;1872773;76;21103;-49
2021/09/06 11:28:55;;;;;;;3.47;1.17;;;;;;;;;;1872799;77;21065;-48
2021/09/06 11:31:27;;;;;;;2.80;1.82;;;;;;;;;;1872677;77;21068;-49
2021/09/06 11:34:00;;;;;;;3.83;1.77;;;;;;;;;;1872649;77;21030;-48
2021/09/06 11:36:30;;;;;;;2.00;1.50;;;;;;;;;;1871961;77;21089;-50
2021/09/06 11:38:59;;;;;;;3.20;1.67;;;;;;;;;;1872674;75;21022;-50
2021/09/06 11:41:28;;;;;;;9.05;2.10;;;;;;;;;;1872829;75;21026;-47
2021/09/06 11:43:58;;;;;;;4.40;1.72;;;;;;;;;;1872350;75;21155;-47
2021/09/06 11:46:27;;;;;;;5.00;1.82;;;;;;;;;;1872659;75;21037;-48
2021/09/06 11:48:56;;;;;;;3.80;2.72;;;;;;;;;;1872882;75;21123;-50
2021/09/06 11:51:25;;;;;;;4.65;2.12;;;;;;;;;;1872840;76;21092;-50
2021/09/06 11:53:57;;;;;;;4.15;2.20;;;;;;;;;;1872830;76;21069;-48
2021/09/06 11:56:26;;;;;;;5.42;1.92;;;;;;;;;;1872818;75;21363;-48
2021/09/06 11:58:59;;;;;;;3.40;1.67;;;;;;;;;;1873002;75;21029;-50
2021/09/06 12:01:28;;;;;;;6.33;2.00;;;;;;;;;;1872971;75;21033;-49
2021/09/06 12:04:07;;;;;;;3.65;1.92;;;;;;;;;;1873002;76;21099;-48
2021/09/06 12:06:39;;;;;;;3.37;2.00;;;;;;;;;;1872810;76;21096;-50
2021/09/06 12:09:10;;;;;;;4.05;2.10;;;;;;;;;;1872838;75;21107;-51
2021/09/06 12:11:39;;;;;;;3.65;2.17;;;;;;;;;;1872978;77;21529;-50
2021/09/06 12:14:09;;;;;;;2.77;2.05;;;;;;;;;;1872794;77;21549;-50
2021/09/06 12:16:38;;;;;;;2.83;1.82;;;;;;;;;;1872934;75;21054;-49
2021/09/06 12:19:20;;;;;;;4.03;2.20;;;;;;;;;;1872819;77;21073;-51
2021/09/06 12:21:50;;;;;;;8.40;3.08;;;;;;;;;;1872906;75;21594;-50
2021/09/06 12:24:22;;;;;;;4.67;2.00;;;;;;;;;;1872848;75;21045;-50
2021/09/06 12:26:52;;;;;;;8.65;2.77;;;;;;;;;;1872870;76;21014;-50
2021/09/06 12:29:33;;;;;;;4.10;1.75;;;;;;;;;;1872739;75;21033;-51
2021/09/06 12:32:03;;;;;;;3.67;2.27;;;;;;;;;;1872906;77;21515;-47
2021/09/06 12:34:32;;;;;;;3.80;2.20;;;;;;;;;;1872920;76;21006;-51
2021/09/06 12:37:02;;;;;;;3.42;2.42;;;;;;;;;;1872833;76;21038;-52
2021/09/06 12:39:32;;;;;;;3.10;2.00;;;;;;;;;;1872920;77;21088;-49
2021/09/06 12:42:02;;;;;;;5.65;2.30;;;;;;;;;;1872539;75;21141;-49
2021/09/06 12:44:31;;;;;;;1.82;1.60;;;;;;;;;;1872841;75;21041;-51
2021/09/06 12:47:00;;;;;;;3.45;2.05;;;;;;;;;;1872915;75;21029;-51
2021/09/06 12:49:29;;;;;;;6.17;2.15;;;;;;;;;;1872827;76;21131;-51
2021/09/06 12:51:59;;;;;;;3.15;1.80;;;;;;;;;;1872937;75;21030;-51
2021/09/06 12:54:28;;;;;;;3.30;1.92;;;;;;;;;;1873031;75;21491;-51
2021/09/06 12:56:58;;;;;;;3.02;1.90;;;;;;;;;;1872989;75;21057;-50
2021/09/06 12:59:27;;;;;;;4.62;2.17;;;;;;;;;;1872777;76;21109;-51
2021/09/06 13:01:56;;;;;;;4.85;1.67;;;;;;;;;;1872876;75;21014;-51
2021/09/06 13:04:25;;;;;;;4.70;2.95;;;;;;;;;;1873018;76;21053;-50
2021/09/06 13:06:54;;;;;;;4.97;2.20;;;;;;;;;;1872994;75;21050;-51
2021/09/06 13:09:23;;;;;;;2.42;2.02;;;;;;;;;;1872908;75;21111;-49
2021/09/06 13:11:52;;;;;;;3.85;2.20;;;;;;;;;;1872917;77;21045;-50
2021/09/06 13:14:21;;;;;;;2.62;1.67;;;;;;;;;;1872895;75;21045;-52
2021/09/06 13:16:50;;;;;;;3.55;2.17;;;;;;;;;;1872902;76;21033;-51
2021/09/06 13:19:19;;;;;;;3.75;2.10;;;;;;;;;;1872842;77;21115;-51
2021/09/06 13:21:48;;;;;;;3.42;2.12;;;;;;;;;;1872952;76;21045;-50
2021/09/06 13:24:17;;;;;;;3.33;2.10;;;;;;;;;;1872806;76;21109;-52
2021/09/06 13:26:45;;;;;;;3.80;2.47;;;;;;;;;;1872855;77;21108;-53
2021/09/06 13:29:15;;;;;;;3.40;2.10;;;;;;;;;;1872798;75;21115;-51
2021/09/06 13:31:44;;;;;;;7.62;2.33;;;;;;;;;;1872960;76;21037;-52
2021/09/06 13:34:13;;;;;;;8.73;4.47;;;;;;;;;;1873013;76;21029;-51
2021/09/06 13:36:43;;;;;;;21.90;5.70;;;;;;;;;;1873033;77;21054;-50
2021/09/06 13:39:11;;;;;;;81.00;32.53;;;;;;;;;;1873021;75;21037;-49
2021/09/06 13:41:40;;;;;;;33.33;15.55;;;;;;;;;;1873008;75;21041;-50
2021/09/06 13:44:09;;;;;;;10.48;5.78;;;;;;;;;;1873026;76;21033;-51
2021/09/06 13:46:38;;;;;;;7.97;2.55;;;;;;;;;;1872897;77;21049;-51
2021/09/06 13:49:07;;;;;;;4.60;2.45;;;;;;;;;;1872919;75;21178;-50
2021/09/06 13:51:36;;;;;;;5.53;3.05;;;;;;;;;;1873041;76;21116;-51
2021/09/06 13:54:05;;;;;;;6.47;3.25;;;;;;;;;;1872921;76;21049;-50
2021/09/06 13:56:36;;;;;;;5.90;2.87;;;;;;;;;;1872882;75;21042;-50
2021/09/06 13:59:05;;;;;;;9.18;4.50;;;;;;;;;;1873102;75;21050;-51
2021/09/06 14:01:33;;;;;;;3.22;1.95;;;;;;;;;;1873027;75;21025;-52
2021/09/06 14:04:02;;;;;;;2.87;2.17;;;;;;;;;;1872807;76;21108;-51
2021/09/06 14:06:31;;;;;;;4.28;2.17;;;;;;;;;;1872935;77;21041;-51
2021/09/06 14:09:00;;;;;;;7.33;4.20;;;;;;;;;;1872989;76;21034;-51
2021/09/06 14:11:29;;;;;;;3.72;2.15;;;;;;;;;;1872960;77;21025;-53
2021/09/06 14:14:01;;;;;;;6.33;2.52;;;;;;;;;;1872891;75;21115;-51
2021/09/06 14:16:33;;;;;;;7.10;4.15;;;;;;;;;;1848689;77;21116;-51
2021/09/06 14:19:07;;;;;;;8.33;5.72;;;;;;;;;;1823634;75;21045;-52
2021/09/06 14:21:45;;;;;;;7.08;2.70;;;;;;;;;;1870050;77;21119;-52
2021/09/06 14:24:16;;;;;;;13.13;3.00;;;;;;;;;;1848407;77;21026;-52
2021/09/06 14:26:45;;;;;;;4.15;2.25;;;;;;;;;;1848397;77;21091;-52
2021/09/06 14:29:15;;;;;;;5.78;2.60;;;;;;;;;;1872672;77;21120;-50
2021/09/06 14:31:46;;;;;;;4.12;2.40;;;;;;;;;;1872754;75;21062;-51
2021/09/06 14:34:14;;;;;;;7.12;2.90;;;;;;;;;;1848583;77;21087;-51
2021/09/06 14:36:45;;;;;;;10.10;3.40;;;;;;;;;;1872910;77;21108;-52
2021/09/06 14:39:17;;;;;;;4.42;2.40;;;;;;;;;;1872373;76;21112;-49
2021/09/06 14:41:50;;;;;;;2.60;1.90;;;;;;;;;;1872981;75;21148;-50
2021/09/06 14:44:18;;;;;;;3.95;2.42;;;;;;;;;;1872872;75;21037;-51
2021/09/06 14:46:49;;;;;;;5.67;2.58;;;;;;;;;;1872841;77;21001;-52
2021/09/06 14:49:19;;;;;;;3.50;2.55;;;;;;;;;;1872696;75;21069;-53
2021/09/06 14:51:49;;;;;;;4.40;2.58;;;;;;;;;;1839173;77;21061;-52
2021/09/06 14:54:18;;;;;;;5.22;2.75;;;;;;;;;;1872874;75;21084;-52
2021/09/06 14:56:47;;;;;;;6.62;4.40;;;;;;;;;;1839532;77;21121;-52
2021/09/06 14:59:18;;;;;;;8.78;4.90;;;;;;;;;;1872869;77;21081;-52